MST,Max TemperatureF,Mean TemperatureF,Min TemperatureF,Max Dew PointF,MeanDew PointF,Min DewpointF,Max Humidity, Mean Humidity, Min Humidity, Max Sea Level PressureIn, Mean Sea Level PressureIn, Min Sea Level PressureIn, Max VisibilityMiles, Mean VisibilityMiles, Min VisibilityMiles, Max Wind SpeedMPH, Mean Wind SpeedMPH, Max Gust SpeedMPH,PrecipitationIn, CloudCover, Events, WindDirDegrees
2013-1-1,21,13,4,15,8,1,88,80,71,30.75,30.68,30.54,10,10,10,9,4,12,0.00,6,,235
2013-1-2,23,15,6,16,10,3,84,76,68,30.77,30.70,30.60,10,9,4,8,4,8,T,7,Snow,243
2013-1-3,16,7,-2,6,0,-5,96,82,67,30.74,30.70,30.65,10,8,6,9,4,10,0.00,0,,249
2013-1-4,16,8,0,6,0,-5,87,74,61,30.77,30.71,30.66,9,8,5,9,3,15,0.00,0,,230
2013-1-5,16,8,-1,9,2,-6,87,77,67,30.72,30.63,30.49,9,7,5,9,4,14,0.00,0,,246
2013-1-6,25,16,6,14,9,3,92,77,62,30.47,30.41,30.33,7,6,4,8,1,14,0.00,4,,217
2013-1-7,23,14,5,19,16,1,91,86,80,30.43,30.31,30.24,6,2,0,7,2,9,0.22,8,Fog-Snow,360
2013-1-8,29,20,11,21,18,8,92,81,69,30.40,30.34,30.26,5,3,2,9,2,13,0.01,6,Snow,254
2013-1-9,36,23,10,32,21,7,92,85,78,30.38,30.01,29.74,6,3,2,26,4,32,0.08,6,Rain-Snow,274
2013-1-10,35,30,24,27,21,17,82,69,56,29.91,29.85,29.74,10,9,3,29,15,38,T,8,Snow,295
2013-1-11,30,26,19,19,15,11,69,61,53,30.25,30.07,29.91,10,10,10,26,16,33,0.00,4,,308
2013-1-12,21,8,-5,11,2,-7,87,74,61,30.45,30.37,30.26,10,9,2,9,2,12,0.00,0,,268
2013-1-13,14,5,-5,6,-1,-9,88,78,67,30.60,30.49,30.29,10,10,8,5,0,6,0.00,3,,90
2013-1-14,18,12,5,10,6,1,83,75,67,30.68,30.61,30.48,10,7,2,8,2,12,T,7,Snow,338
2013-1-15,18,9,-1,9,3,-6,88,78,67,30.93,30.83,30.55,7,5,2,10,2,10,0.00,0,,249
2013-1-16,14,5,-4,7,-2,-9,88,80,72,31.02,30.89,30.80,7,4,0,7,1,8,0.00,2,Fog,240
2013-1-17,13,5,-4,6,0,-9,87,79,70,31.00,30.86,30.69,4,2,0,5,0,9,T,5,Snow,265
2013-1-18,11,4,-4,4,-4,-11,87,79,71,30.86,30.72,30.61,5,2,0,7,1,7,0.00,6,Fog,229
2013-1-19,8,2,-5,3,-4,-11,87,79,71,30.92,30.74,30.64,5,2,0,6,0,7,T,5,Fog-Snow,243
2013-1-20,9,2,-6,2,-4,-11,83,76,69,30.89,30.78,30.64,4,2,0,6,1,7,0.00,6,Fog,244
2013-1-21,9,0,-9,1,-7,-15,91,78,64,30.82,30.67,30.51,4,2,0,5,1,6,0.00,2,Fog,234
2013-1-22,9,0,-9,2,-7,-15,87,78,69,30.73,30.58,30.43,4,2,0,6,1,7,T,5,Fog,237
2013-1-23,18,6,-6,11,-2,-11,87,79,70,30.56,30.42,30.25,4,3,2,8,1,9,T,3,,201
2013-1-24,30,24,18,25,19,12,88,79,69,30.45,30.35,30.28,4,2,2,6,1,6,0.09,8,Snow,210
2013-1-25,34,31,27,31,28,24,92,87,82,30.40,30.20,29.99,2,1,1,20,2,24,0.09,8,Rain,214
2013-1-26,37,34,31,34,32,30,96,93,89,30.12,29.97,29.89,2,1,0,12,2,14,0.02,8,Fog-Rain,259
2013-1-27,41,33,24,30,25,21,100,77,54,30.09,30.04,29.97,10,7,0,14,6,16,0.00,4,Fog,259
2013-1-28,33,27,21,29,26,19,92,84,75,30.14,30.04,29.95,10,5,1,7,1,8,0.02,7,Snow,360
2013-1-29,44,36,28,31,28,26,92,75,57,30.31,30.09,29.93,10,6,2,17,6,24,0.00,6,,308
2013-1-30,46,38,30,35,31,28,92,79,65,30.40,30.33,30.27,10,9,2,7,1,9,0.01,6,,96
2013-1-31,45,37,28,36,30,27,92,81,70,30.44,30.39,30.36,10,7,2,8,2,9,0.00,3,,319